Time;durP1;ratioP1;P1;durP2;ratioP2;P2;SDS_P1;SDS_P2;PMS_P1;PMS_P2;Temp;Humidity;BMP_temperature;BMP_pressure;BME280_temperature;BME280_humidity;BME280_pressure;Samples;Min_cycle;Max_cycle;Signal;HPM_P1;HPM_P2
2023/09/24 00:00:56;;;;;;;13.68;8.48;;;;;;;;;;2095601;28;20033;-71
2023/09/24 00:02:19;;;;;;;14.88;10.13;;;;;;;;;;2103808;28;20028;-71
2023/09/24 00:03:40;;;;;;;16.67;9.65;;;;;;;;;;2099335;28;20027;-71
2023/09/24 00:05:01;;;;;;;12.65;10.00;;;;;;;;;;2095608;28;20020;-71
2023/09/24 00:06:22;;;;;;;12.80;8.90;;;;;;;;;;2103731;28;20479;-72
2023/09/24 00:07:42;;;;;;;10.57;9.13;;;;;;;;;;2096089;28;20036;-72
2023/09/24 00:09:03;;;;;;;12.65;9.60;;;;;;;;;;2100483;28;20511;-72
2023/09/24 00:10:24;;;;;;;10.93;8.50;;;;;;;;;;2095148;28;20086;-72
2023/09/24 00:11:47;;;;;;;13.25;8.98;;;;;;;;;;2100714;28;20036;-72
2023/09/24 00:13:07;;;;;;;13.32;8.85;;;;;;;;;;2096167;28;20041;-72
2023/09/24 00:14:30;;;;;;;10.88;8.50;;;;;;;;;;2096681;28;20365;-72
2023/09/24 00:15:51;;;;;;;14.05;9.18;;;;;;;;;;2094838;28;20459;-72
2023/09/24 00:17:16;;;;;;;12.68;9.02;;;;;;;;;;2098189;28;20058;-72
2023/09/24 00:18:37;;;;;;;16.48;8.23;;;;;;;;;;2090292;28;20063;-73
2023/09/24 00:19:58;;;;;;;12.25;8.73;;;;;;;;;;2095863;28;20025;-72
2023/09/24 00:21:19;;;;;;;11.70;8.65;;;;;;;;;;2095382;28;20028;-72
2023/09/24 00:22:40;;;;;;;11.93;7.55;;;;;;;;;;2095887;28;20031;-72
2023/09/24 00:24:02;;;;;;;14.23;8.60;;;;;;;;;;2096806;28;20063;-72
2023/09/24 00:25:23;;;;;;;11.73;8.88;;;;;;;;;;2096086;28;20025;-72
2023/09/24 00:26:45;;;;;;;15.37;9.30;;;;;;;;;;2096287;28;20028;-72
2023/09/24 00:28:07;;;;;;;14.02;9.23;;;;;;;;;;2093708;28;20470;-72
2023/09/24 00:29:28;;;;;;;14.30;9.25;;;;;;;;;;2095299;28;20028;-72
2023/09/24 00:30:50;;;;;;;12.32;8.80;;;;;;;;;;2091173;28;20488;-72
2023/09/24 00:32:11;;;;;;;14.15;9.30;;;;;;;;;;2093044;28;20055;-72
2023/09/24 00:33:32;;;;;;;13.88;9.50;;;;;;;;;;2095690;28;20028;-72
2023/09/24 00:34:55;;;;;;;12.43;8.48;;;;;;;;;;2098111;28;20032;-76
2023/09/24 00:36:16;;;;;;;13.38;8.07;;;;;;;;;;2095259;28;20040;-76
2023/09/24 00:37:36;;;;;;;11.48;8.40;;;;;;;;;;2097163;28;20177;-76
2023/09/24 00:38:58;;;;;;;14.30;8.57;;;;;;;;;;2102419;28;20261;-76
2023/09/24 00:40:19;;;;;;;12.55;9.07;;;;;;;;;;2098724;28;20396;-76
2023/09/24 00:41:45;;;;;;;14.68;9.30;;;;;;;;;;2102683;28;20028;-76
2023/09/24 00:43:28;;;;;;;10.75;8.40;;;;;;;;;;2111897;28;20027;-75
2023/09/24 00:44:49;;;;;;;11.57;8.63;;;;;;;;;;2094717;28;20025;-76
2023/09/24 00:46:11;;;;;;;10.38;7.88;;;;;;;;;;2096593;28;20043;-76
2023/09/24 00:47:32;;;;;;;12.75;7.65;;;;;;;;;;2096662;28;20484;-76
2023/09/24 00:48:56;;;;;;;13.43;9.13;;;;;;;;;;2095300;28;20167;-76
2023/09/24 00:50:17;;;;;;;13.40;8.63;;;;;;;;;;2092124;28;20125;-76
2023/09/24 00:51:39;;;;;;;11.23;8.65;;;;;;;;;;2095070;28;20032;-76
2023/09/24 00:53:01;;;;;;;13.02;9.25;;;;;;;;;;2096455;28;20032;-76
2023/09/24 00:54:22;;;;;;;10.52;7.90;;;;;;;;;;2095680;28;20025;-76
2023/09/24 00:55:43;;;;;;;11.25;8.07;;;;;;;;;;2094444;28;20039;-75
2023/09/24 00:57:05;;;;;;;11.48;8.02;;;;;;;;;;2088501;28;20036;-75
2023/09/24 00:58:27;;;;;;;10.52;7.72;;;;;;;;;;2081370;28;20080;-76
2023/09/24 00:59:49;;;;;;;12.20;7.95;;;;;;;;;;2093323;28;20037;-76
2023/09/24 01:01:11;;;;;;;14.30;8.68;;;;;;;;;;2094448;28;20082;-76
2023/09/24 01:02:32;;;;;;;13.40;8.35;;;;;;;;;;2096337;28;20043;-76
2023/09/24 01:03:53;;;;;;;14.45;8.73;;;;;;;;;;2094761;28;20086;-75
2023/09/24 01:05:14;;;;;;;12.15;8.00;;;;;;;;;;2100544;28;20024;-76
2023/09/24 01:06:35;;;;;;;14.52;9.85;;;;;;;;;;2096684;28;20098;-76
2023/09/24 01:07:56;;;;;;;12.65;9.13;;;;;;;;;;2094972;28;20036;-76
2023/09/24 01:09:19;;;;;;;16.65;9.18;;;;;;;;;;2091810;28;20032;-75
2023/09/24 01:10:40;;;;;;;14.55;9.18;;;;;;;;;;2089995;28;20499;-76
2023/09/24 01:12:03;;;;;;;11.43;8.90;;;;;;;;;;2090857;28;20049;-76
2023/09/24 01:13:24;;;;;;;13.98;9.02;;;;;;;;;;2093741;28;20024;-76
2023/09/24 01:14:44;;;;;;;16.10;9.52;;;;;;;;;;2093656;28;20056;-76
2023/09/24 01:16:06;;;;;;;15.27;9.73;;;;;;;;;;2092555;28;20067;-76
2023/09/24 01:17:27;;;;;;;14.13;8.40;;;;;;;;;;2103110;28;20079;-75
2023/09/24 01:18:49;;;;;;;13.10;8.82;;;;;;;;;;2098011;28;20036;-76
2023/09/24 01:20:13;;;;;;;17.45;9.45;;;;;;;;;;2094323;28;20024;-76
2023/09/24 01:21:36;;;;;;;12.02;9.30;;;;;;;;;;2095312;28;20495;-76
2023/09/24 01:22:59;;;;;;;12.60;8.90;;;;;;;;;;2087532;28;20401;-76
2023/09/24 01:24:21;;;;;;;11.10;8.15;;;;;;;;;;2095305;28;20361;-76
2023/09/24 01:25:44;;;;;;;9.50;8.05;;;;;;;;;;2093909;28;20032;-75
2023/09/24 01:27:05;;;;;;;8.63;7.75;;;;;;;;;;2086141;28;20484;-76
2023/09/24 01:28:26;;;;;;;14.35;9.27;;;;;;;;;;2090092;28;20358;-76
2023/09/24 01:29:47;;;;;;;11.90;7.15;;;;;;;;;;2096662;28;20040;-76
2023/09/24 01:31:08;;;;;;;13.93;8.52;;;;;;;;;;2094254;28;20500;-76
2023/09/24 01:32:29;;;;;;;12.07;8.40;;;;;;;;;;2096109;28;20488;-76
2023/09/24 01:33:50;;;;;;;11.55;8.35;;;;;;;;;;2092840;28;20134;-76
2023/09/24 01:35:11;;;;;;;8.45;7.57;;;;;;;;;;2094966;28;20107;-76
2023/09/24 01:36:33;;;;;;;10.00;8.35;;;;;;;;;;2094684;28;20025;-76
2023/09/24 01:37:55;;;;;;;8.77;7.85;;;;;;;;;;2096710;28;20345;-76
2023/09/24 01:39:17;;;;;;;12.32;8.77;;;;;;;;;;2093824;28;20044;-75
2023/09/24 01:40:38;;;;;;;;;;;;;;;;;;2104481;28;20024;-76
2023/09/24 01:42:00;;;;;;;10.38;8.20;;;;;;;;;;2102838;28;19908;-77
2023/09/24 01:43:21;;;;;;;15.48;9.60;;;;;;;;;;2104821;28;20398;-76
2023/09/24 01:44:42;;;;;;;10.27;7.93;;;;;;;;;;2097845;28;20033;-71
2023/09/24 01:46:06;;;;;;;13.57;8.85;;;;;;;;;;2095730;28;20021;-74
2023/09/24 01:47:28;;;;;;;14.68;10.00;;;;;;;;;;2094870;28;20024;-73
2023/09/24 01:48:50;;;;;;;;;;;;;;;;;;2097675;28;20503;-71
2023/09/24 01:50:10;;;;;;;16.35;10.50;;;;;;;;;;2094721;28;19912;-72
2023/09/24 01:51:31;;;;;;;15.60;10.30;;;;;;;;;;2094055;28;20465;-72
2023/09/24 01:52:58;;;;;;;15.05;11.70;;;;;;;;;;2093145;28;20491;-70
2023/09/24 01:54:20;;;;;;;27.25;12.50;;;;;;;;;;2094957;28;20062;-70
2023/09/24 01:55:41;;;;;;;15.68;10.45;;;;;;;;;;2094884;28;20033;-71
2023/09/24 01:57:03;;;;;;;15.13;10.73;;;;;;;;;;2094613;28;20025;-73
2023/09/24 01:58:24;;;;;;;14.77;10.38;;;;;;;;;;2092316;28;20025;-72
2023/09/24 01:59:45;;;;;;;12.63;9.98;;;;;;;;;;2098014;28;20041;-71
2023/09/24 02:01:07;;;;;;;17.13;9.95;;;;;;;;;;2096481;28;20028;-71
2023/09/24 02:02:32;;;;;;;17.88;10.70;;;;;;;;;;2097453;28;20052;-72
2023/09/24 02:03:59;;;;;;;12.85;9.82;;;;;;;;;;2097524;28;20036;-71
2023/09/24 02:05:20;;;;;;;15.40;9.88;;;;;;;;;;2097111;28;20025;-72
2023/09/24 02:06:41;;;;;;;13.30;9.95;;;;;;;;;;2088877;28;20511;-72
2023/09/24 02:08:06;;;;;;;14.77;10.30;;;;;;;;;;2096057;28;20444;-71
2023/09/24 02:09:27;;;;;;;15.23;10.20;;;;;;;;;;2095085;28;20043;-72
2023/09/24 02:10:47;;;;;;;14.02;9.15;;;;;;;;;;2096975;28;20476;-72
2023/09/24 02:12:09;;;;;;;13.23;10.20;;;;;;;;;;2095884;28;20036;-72
2023/09/24 02:13:30;;;;;;;11.57;10.17;;;;;;;;;;2104426;28;20021;-74
2023/09/24 02:14:51;;;;;;;13.82;9.52;;;;;;;;;;2092436;28;20051;-72
2023/09/24 02:16:13;;;;;;;13.80;10.27;;;;;;;;;;2096869;28;20059;-71
2023/09/24 02:17:33;;;;;;;18.60;10.93;;;;;;;;;;2097799;28;20028;-72
2023/09/24 02:18:54;;;;;;;15.00;10.57;;;;;;;;;;2103089;28;20423;-73
2023/09/24 02:20:31;;;;;;;13.43;10.38;;;;;;;;;;2099750;28;20040;-72
2023/09/24 02:21:52;;;;;;;13.00;9.70;;;;;;;;;;2104223;28;20349;-73
2023/09/24 02:23:13;;;;;;;14.10;10.40;;;;;;;;;;2097037;28;20165;-72
2023/09/24 02:24:35;;;;;;;13.88;10.27;;;;;;;;;;2097104;28;20035;-72
2023/09/24 02:25:56;;;;;;;13.25;8.88;;;;;;;;;;2097094;28;20028;-72
2023/09/24 02:27:17;;;;;;;15.68;10.43;;;;;;;;;;2095040;28;20027;-71
2023/09/24 02:28:40;;;;;;;17.90;10.82;;;;;;;;;;2096163;28;20029;-71
2023/09/24 02:30:01;;;;;;;14.15;11.00;;;;;;;;;;2097370;28;20036;-72
2023/09/24 02:31:22;;;;;;;14.55;9.77;;;;;;;;;;2094492;28;20032;-71
2023/09/24 02:32:44;;;;;;;14.65;10.10;;;;;;;;;;2098151;28;20025;-73
2023/09/24 02:34:05;;;;;;;14.40;9.40;;;;;;;;;;2094704;28;20345;-72
2023/09/24 02:35:26;;;;;;;11.80;9.52;;;;;;;;;;2097749;28;20049;-71
2023/09/24 02:36:47;;;;;;;17.65;11.07;;;;;;;;;;2096802;28;20028;-72
2023/09/24 02:38:08;;;;;;;14.45;10.20;;;;;;;;;;2093760;28;20032;-71
2023/09/24 02:39:29;;;;;;;12.45;8.85;;;;;;;;;;2095314;28;20404;-71
2023/09/24 02:40:50;;;;;;;15.38;9.88;;;;;;;;;;2089423;28;20032;-72
2023/09/24 02:42:11;;;;;;;13.70;9.85;;;;;;;;;;2099004;28;20032;-73
2023/09/24 02:43:32;;;;;;;15.05;9.82;;;;;;;;;;2096905;28;20487;-71
2023/09/24 02:44:53;;;;;;;15.45;9.48;;;;;;;;;;2104047;28;20043;-71
2023/09/24 02:46:15;;;;;;;16.45;10.07;;;;;;;;;;2097277;28;20365;-72
2023/09/24 02:47:36;;;;;;;14.80;10.60;;;;;;;;;;2096412;28;20027;-71
2023/09/24 02:48:57;;;;;;;14.23;10.20;;;;;;;;;;2100303;28;20048;-72
2023/09/24 02:50:25;;;;;;;12.48;10.60;;;;;;;;;;2099619;28;20044;-71
2023/09/24 02:51:46;;;;;;;15.35;10.30;;;;;;;;;;2089385;28;20215;-72
2023/09/24 02:53:08;;;;;;;12.00;10.48;;;;;;;;;;2095299;28;20476;-71
2023/09/24 02:54:29;;;;;;;11.88;9.93;;;;;;;;;;2096260;28;20033;-71
2023/09/24 02:55:50;;;;;;;14.10;11.10;;;;;;;;;;2098371;28;20403;-76
2023/09/24 02:57:11;;;;;;;16.65;10.63;;;;;;;;;;2097116;28;20043;-76
2023/09/24 02:58:32;;;;;;;15.25;10.98;;;;;;;;;;2101329;28;20035;-76
2023/09/24 02:59:53;;;;;;;11.73;9.73;;;;;;;;;;2088555;28;20504;-77
2023/09/24 03:01:15;;;;;;;12.77;10.23;;;;;;;;;;2092157;28;20025;-75
2023/09/24 03:02:38;;;;;;;;;;;;;;;;;;2092448;28;20162;-77
2023/09/24 03:03:59;;;;;;;14.88;11.07;;;;;;;;;;2094577;28;19912;-77
2023/09/24 03:05:24;;;;;;;14.40;10.52;;;;;;;;;;2090524;28;20029;-75
2023/09/24 03:06:48;;;;;;;14.20;11.93;;;;;;;;;;2090652;28;20029;-77
2023/09/24 03:08:09;;;;;;;13.10;10.90;;;;;;;;;;2095504;28;20028;-77
2023/09/24 03:09:30;;;;;;;14.65;11.45;;;;;;;;;;2093959;28;20054;-77
2023/09/24 03:10:51;;;;;;;18.35;11.90;;;;;;;;;;2094818;28;20040;-77
2023/09/24 03:12:12;;;;;;;17.45;12.20;;;;;;;;;;2092993;28;20118;-76
2023/09/24 03:13:33;;;;;;;17.70;12.38;;;;;;;;;;2093892;28;20413;-75
2023/09/24 03:14:54;;;;;;;15.25;12.18;;;;;;;;;;2094255;28;20040;-76
2023/09/24 03:16:15;;;;;;;15.30;12.07;;;;;;;;;;2096378;28;20098;-77
2023/09/24 03:17:37;;;;;;;21.38;12.55;;;;;;;;;;2094115;28;20029;-77
2023/09/24 03:18:59;;;;;;;17.08;11.60;;;;;;;;;;2092695;28;20029;-77
2023/09/24 03:20:20;;;;;;;15.23;12.10;;;;;;;;;;2089373;28;20036;-77
2023/09/24 03:21:41;;;;;;;17.50;11.48;;;;;;;;;;2089637;28;20032;-77
2023/09/24 03:23:08;;;;;;;15.85;12.13;;;;;;;;;;2093346;28;20029;-77
2023/09/24 03:24:29;;;;;;;14.60;11.43;;;;;;;;;;2095527;28;20487;-77
2023/09/24 03:25:50;;;;;;;17.98;12.65;;;;;;;;;;2101252;28;20314;-77
2023/09/24 03:27:10;;;;;;;12.63;11.05;;;;;;;;;;2098863;28;20528;-77
2023/09/24 03:28:31;;;;;;;14.05;11.57;;;;;;;;;;2093522;28;20063;-77
2023/09/24 03:29:52;;;;;;;14.00;11.73;;;;;;;;;;2096183;28;20040;-77
2023/09/24 03:31:14;;;;;;;15.68;11.82;;;;;;;;;;2091159;28;20055;-77
2023/09/24 03:32:36;;;;;;;15.20;10.65;;;;;;;;;;2094930;28;20027;-76
2023/09/24 03:33:57;;;;;;;15.77;11.55;;;;;;;;;;2096812;28;20511;-78
2023/09/24 03:35:26;;;;;;;17.90;11.60;;;;;;;;;;2095820;28;20049;-77
2023/09/24 03:36:47;;;;;;;18.25;11.93;;;;;;;;;;2088021;28;20032;-77
2023/09/24 03:38:07;;;;;;;18.33;11.55;;;;;;;;;;2100216;28;20032;-77
2023/09/24 03:39:28;;;;;;;18.73;12.02;;;;;;;;;;2096567;28;20044;-77
2023/09/24 03:40:49;;;;;;;18.60;12.48;;;;;;;;;;2091971;28;20032;-77
2023/09/24 03:42:10;;;;;;;16.33;13.52;;;;;;;;;;2090021;28;20040;-77
2023/09/24 03:43:31;;;;;;;21.50;12.68;;;;;;;;;;2092451;28;20021;-77
2023/09/24 03:44:52;;;;;;;19.38;12.70;;;;;;;;;;2093741;28;20024;-77
2023/09/24 03:46:13;;;;;;;16.00;11.00;;;;;;;;;;2094879;28;20496;-77
2023/09/24 03:47:34;;;;;;;19.13;12.45;;;;;;;;;;2094852;28;20063;-75
2023/09/24 03:48:55;;;;;;;18.23;12.52;;;;;;;;;;2091349;28;20103;-77
2023/09/24 03:50:19;;;;;;;20.33;12.15;;;;;;;;;;2092551;28;20496;-76
2023/09/24 03:51:40;;;;;;;22.40;13.07;;;;;;;;;;2092520;28;20028;-76
2023/09/24 03:53:01;;;;;;;16.65;12.13;;;;;;;;;;2094094;28;20434;-77
2023/09/24 03:54:22;;;;;;;15.90;13.10;;;;;;;;;;2091155;28;20032;-77
2023/09/24 03:55:44;;;;;;;20.60;12.82;;;;;;;;;;2091791;28;20028;-77
2023/09/24 03:57:05;;;;;;;;;;;;;;;;;;2092037;28;20025;-77
2023/09/24 03:58:26;;;;;;;18.00;11.02;;;;;;;;;;2094538;28;20364;-76
2023/09/24 03:59:47;;;;;;;15.95;11.85;;;;;;;;;;2094325;28;20036;-78
2023/09/24 04:01:09;;;;;;;18.55;12.70;;;;;;;;;;2093019;28;20025;-77
2023/09/24 04:02:30;;;;;;;20.30;13.32;;;;;;;;;;2092522;28;20517;-77
2023/09/24 04:03:51;;;;;;;17.90;11.68;;;;;;;;;;2092965;28;20044;-77
2023/09/24 04:05:14;;;;;;;17.80;13.38;;;;;;;;;;2094234;28;20028;-78
2023/09/24 04:06:35;;;;;;;19.88;14.07;;;;;;;;;;2085275;28;20082;-78
2023/09/24 04:07:56;;;;;;;16.85;13.95;;;;;;;;;;2091169;28;20457;-77
2023/09/24 04:09:17;;;;;;;19.23;11.45;;;;;;;;;;2094746;28;20049;-78
2023/09/24 04:10:38;;;;;;;21.38;13.18;;;;;;;;;;2093023;28;20037;-77
2023/09/24 04:12:00;;;;;;;18.73;12.77;;;;;;;;;;2092650;28;20040;-78
2023/09/24 04:13:21;;;;;;;14.73;11.90;;;;;;;;;;2097525;28;20437;-78
2023/09/24 04:14:41;;;;;;;17.88;12.02;;;;;;;;;;2092639;28;20442;-77
2023/09/24 04:16:08;;;;;;;22.95;14.05;;;;;;;;;;2091561;28;20040;-77
2023/09/24 04:17:29;;;;;;;16.30;11.68;;;;;;;;;;2093599;28;20036;-77
2023/09/24 04:18:50;;;;;;;19.95;12.27;;;;;;;;;;2097625;28;20020;-78
2023/09/24 04:20:12;;;;;;;22.30;12.20;;;;;;;;;;2091397;28;20135;-77
2023/09/24 04:21:33;;;;;;;17.83;12.40;;;;;;;;;;2089524;28;20128;-78
2023/09/24 04:22:54;;;;;;;21.83;12.57;;;;;;;;;;2097118;28;20033;-77
2023/09/24 04:24:15;;;;;;;18.73;11.73;;;;;;;;;;2094880;28;20028;-78
2023/09/24 04:25:36;;;;;;;17.65;12.93;;;;;;;;;;2095945;28;20059;-78
2023/09/24 04:26:57;;;;;;;19.77;11.80;;;;;;;;;;2093168;28;20412;-78
2023/09/24 04:28:19;;;;;;;17.58;13.20;;;;;;;;;;2092940;28;20032;-78
2023/09/24 04:29:41;;;;;;;14.63;11.90;;;;;;;;;;2100549;28;20043;-78
2023/09/24 04:31:02;;;;;;;17.15;11.70;;;;;;;;;;2089983;28;20091;-77
2023/09/24 04:32:22;;;;;;;20.90;12.70;;;;;;;;;;2099456;28;20028;-78
2023/09/24 04:33:44;;;;;;;18.38;12.20;;;;;;;;;;2098075;28;20025;-78
2023/09/24 04:35:05;;;;;;;18.45;12.30;;;;;;;;;;2089424;28;20499;-78
2023/09/24 04:36:26;;;;;;;19.30;12.57;;;;;;;;;;2097113;28;20037;-78
2023/09/24 04:37:47;;;;;;;15.52;11.93;;;;;;;;;;2103468;28;20070;-78
2023/09/24 04:39:11;;;;;;;16.30;12.13;;;;;;;;;;2095394;28;20476;-77
2023/09/24 04:40:33;;;;;;;18.48;13.23;;;;;;;;;;2096296;28;20070;-78
2023/09/24 04:41:54;;;;;;;17.38;12.18;;;;;;;;;;2089224;28;20472;-78
2023/09/24 04:43:18;;;;;;;20.50;12.15;;;;;;;;;;2095859;28;20056;-78
2023/09/24 04:44:38;;;;;;;17.05;12.38;;;;;;;;;;2096810;28;20472;-78
2023/09/24 04:46:02;;;;;;;18.60;11.38;;;;;;;;;;2096159;28;20037;-79
2023/09/24 04:47:22;;;;;;;19.02;12.68;;;;;;;;;;2103418;28;20024;-78
2023/09/24 04:48:43;;;;;;;22.15;13.50;;;;;;;;;;2088655;28;20046;-77
2023/09/24 04:50:05;;;;;;;18.38;13.30;;;;;;;;;;2089019;28;20036;-78
2023/09/24 04:51:27;;;;;;;16.98;13.00;;;;;;;;;;2081871;28;20037;-77
2023/09/24 04:52:50;;;;;;;23.55;13.18;;;;;;;;;;2094142;28;20021;-77
2023/09/24 04:54:11;;;;;;;17.23;13.07;;;;;;;;;;2091722;28;20020;-77
2023/09/24 04:55:33;;;;;;;21.40;13.00;;;;;;;;;;2086329;28;20033;-77
2023/09/24 04:56:53;;;;;;;21.33;12.38;;;;;;;;;;2093225;28;20036;-78
2023/09/24 04:58:14;;;;;;;20.15;13.93;;;;;;;;;;2094170;28;20549;-75
2023/09/24 04:59:35;;;;;;;18.75;12.98;;;;;;;;;;2092170;28;20040;-77
2023/09/24 05:01:02;;;;;;;20.63;13.10;;;;;;;;;;2092209;28;20032;-77
2023/09/24 05:02:23;;;;;;;13.75;11.50;;;;;;;;;;2091151;28;20029;-76
2023/09/24 05:03:44;;;;;;;21.90;13.15;;;;;;;;;;2089862;28;20025;-77
2023/09/24 05:05:05;;;;;;;22.17;12.38;;;;;;;;;;2082106;28;20339;-76
2023/09/24 05:06:27;;;;;;;20.30;12.93;;;;;;;;;;2089668;28;20041;-76
2023/09/24 05:07:50;;;;;;;17.42;12.18;;;;;;;;;;2093476;28;20037;-77
2023/09/24 05:09:11;;;;;;;22.45;12.95;;;;;;;;;;2093514;28;20565;-76
2023/09/24 05:10:32;;;;;;;20.75;13.95;;;;;;;;;;2090671;28;20063;-77
2023/09/24 05:11:53;;;;;;;16.98;12.73;;;;;;;;;;2098947;28;20036;-78
2023/09/24 05:13:14;;;;;;;18.45;13.50;;;;;;;;;;2096033;28;20032;-76
2023/09/24 05:14:35;;;;;;;17.25;12.77;;;;;;;;;;2101054;28;20077;-77
2023/09/24 05:16:00;;;;;;;17.45;13.32;;;;;;;;;;2094703;28;20032;-75
2023/09/24 05:17:20;;;;;;;16.40;11.45;;;;;;;;;;2091820;28;20032;-77
2023/09/24 05:18:42;;;;;;;15.38;10.93;;;;;;;;;;2103014;28;20447;-77
2023/09/24 05:20:03;;;;;;;15.63;11.52;;;;;;;;;;2097161;28;20037;-77
2023/09/24 05:21:24;;;;;;;21.77;12.85;;;;;;;;;;2097025;28;20020;-77
2023/09/24 05:22:45;;;;;;;17.55;12.52;;;;;;;;;;2096892;28;20025;-77
2023/09/24 05:24:06;;;;;;;14.35;11.60;;;;;;;;;;2095298;28;20361;-78
2023/09/24 05:25:27;;;;;;;15.10;11.50;;;;;;;;;;2089481;28;20420;-75
2023/09/24 05:26:48;;;;;;;17.25;12.02;;;;;;;;;;2089815;28;20025;-75
2023/09/24 05:28:09;;;;;;;15.70;11.15;;;;;;;;;;2094837;28;20093;-76
2023/09/24 05:29:30;;;;;;;14.07;10.30;;;;;;;;;;2096157;28;20153;-77
2023/09/24 05:30:54;;;;;;;15.13;12.23;;;;;;;;;;2090210;28;20033;-76
2023/09/24 05:32:15;;;;;;;15.68;11.00;;;;;;;;;;2097118;28;20488;-76
2023/09/24 05:33:36;;;;;;;15.90;11.50;;;;;;;;;;2096848;28;20036;-75
2023/09/24 05:34:57;;;;;;;17.27;11.82;;;;;;;;;;2086150;28;20226;-76
2023/09/24 05:36:18;;;;;;;17.02;11.82;;;;;;;;;;2089646;28;20039;-77
2023/09/24 05:37:39;;;;;;;18.25;12.70;;;;;;;;;;2094781;28;20424;-76
2023/09/24 05:39:00;;;;;;;20.52;12.45;;;;;;;;;;2100472;28;20039;-77
2023/09/24 05:40:21;;;;;;;15.48;11.30;;;;;;;;;;2102804;28;20048;-77
2023/09/24 05:41:41;;;;;;;12.55;10.57;;;;;;;;;;2103758;28;20029;-77
2023/09/24 05:43:02;;;;;;;14.63;10.68;;;;;;;;;;2097231;28;20025;-77
2023/09/24 05:44:24;;;;;;;20.60;10.93;;;;;;;;;;2097169;28;20025;-77
2023/09/24 05:45:46;;;;;;;17.33;10.60;;;;;;;;;;2105291;28;20017;-77
2023/09/24 05:47:07;;;;;;;16.00;11.00;;;;;;;;;;2097214;28;20033;-76
2023/09/24 05:48:28;;;;;;;15.07;12.02;;;;;;;;;;2087318;28;20430;-77
2023/09/24 05:49:49;;;;;;;17.33;10.40;;;;;;;;;;2091879;28;20476;-77
2023/09/24 05:51:09;;;;;;;15.10;11.00;;;;;;;;;;2094684;28;20041;-77
2023/09/24 05:52:31;;;;;;;13.27;10.88;;;;;;;;;;2093257;28;20033;-76
2023/09/24 05:53:52;;;;;;;18.58;11.38;;;;;;;;;;2086119;28;20099;-77
2023/09/24 05:55:13;;;;;;;17.25;11.55;;;;;;;;;;2095612;28;20040;-77
2023/09/24 05:56:34;;;;;;;16.25;11.15;;;;;;;;;;2092183;28;20032;-77
2023/09/24 05:57:55;;;;;;;15.02;10.88;;;;;;;;;;2087492;28;20396;-77
2023/09/24 05:59:19;;;;;;;17.60;11.75;;;;;;;;;;2092088;28;20052;-77
2023/09/24 06:00:40;;;;;;;16.75;11.07;;;;;;;;;;2097028;28;20321;-77
2023/09/24 06:02:00;;;;;;;20.80;11.25;;;;;;;;;;2098606;28;20090;-77
2023/09/24 06:03:22;;;;;;;18.85;13.40;;;;;;;;;;2096743;28;20025;-77
2023/09/24 06:04:42;;;;;;;13.88;12.07;;;;;;;;;;2094644;28;20025;-75
2023/09/24 06:06:06;;;;;;;16.95;11.38;;;;;;;;;;2094105;28;20717;-76
2023/09/24 06:07:28;;;;;;;17.05;10.93;;;;;;;;;;2094219;28;20048;-75
2023/09/24 06:08:51;;;;;;;15.27;11.23;;;;;;;;;;2101322;28;20653;-75
2023/09/24 06:10:12;;;;;;;18.38;11.85;;;;;;;;;;2097330;28;20033;-77
2023/09/24 06:11:34;;;;;;;16.42;11.48;;;;;;;;;;2094552;28;20036;-77
2023/09/24 06:12:55;;;;;;;20.00;11.00;;;;;;;;;;2086682;28;20516;-77
2023/09/24 06:14:16;;;;;;;16.45;12.30;;;;;;;;;;2092815;28;20049;-76
2023/09/24 06:15:37;;;;;;;19.33;12.55;;;;;;;;;;2083071;28;20377;-77
2023/09/24 06:16:58;;;;;;;18.20;12.75;;;;;;;;;;2090237;28;20090;-75
2023/09/24 06:18:20;;;;;;;17.48;12.02;;;;;;;;;;2095704;28;20109;-75
2023/09/24 06:19:41;;;;;;;13.98;10.70;;;;;;;;;;2095775;28;20044;-76
2023/09/24 06:21:04;;;;;;;18.30;12.27;;;;;;;;;;2093912;28;20419;-77
2023/09/24 06:22:27;;;;;;;18.67;12.25;;;;;;;;;;2095406;28;20106;-77
2023/09/24 06:23:48;;;;;;;21.52;11.60;;;;;;;;;;2094008;28;20032;-77
2023/09/24 06:25:09;;;;;;;19.13;12.00;;;;;;;;;;2087096;28;20079;-76
2023/09/24 06:26:35;;;;;;;19.15;11.50;;;;;;;;;;2109742;28;20027;-77
2023/09/24 06:27:56;;;;;;;17.70;12.10;;;;;;;;;;2095850;28;20109;-77
2023/09/24 06:29:17;;;;;;;16.40;11.40;;;;;;;;;;2090433;28;20293;-77
2023/09/24 06:30:41;;;;;;;16.02;12.10;;;;;;;;;;2085772;28;20025;-77
2023/09/24 06:32:02;;;;;;;15.30;11.63;;;;;;;;;;2100756;28;20028;-76
2023/09/24 06:33:23;;;;;;;21.25;12.25;;;;;;;;;;2096819;28;20024;-75
2023/09/24 06:34:44;;;;;;;16.02;11.52;;;;;;;;;;2094893;28;20036;-77
2023/09/24 06:36:05;;;;;;;18.90;10.73;;;;;;;;;;2093635;28;20040;-77
2023/09/24 06:37:25;;;;;;;17.58;11.07;;;;;;;;;;2095213;28;20033;-75
2023/09/24 06:38:47;;;;;;;14.90;12.00;;;;;;;;;;2100584;28;20527;-76
2023/09/24 06:40:09;;;;;;;15.68;11.05;;;;;;;;;;2095508;28;20413;-76
2023/09/24 06:41:30;;;;;;;15.52;11.57;;;;;;;;;;2103111;28;20050;-76
2023/09/24 06:42:51;;;;;;;15.90;10.82;;;;;;;;;;2111942;28;20418;-77
2023/09/24 06:44:13;;;;;;;19.13;10.73;;;;;;;;;;2098401;28;20033;-78
2023/09/24 06:45:34;;;;;;;;;;;;;;;;;;2091123;28;20033;-76
2023/09/24 06:46:55;;;;;;;20.20;11.02;;;;;;;;;;2102376;28;19974;-76
2023/09/24 06:48:16;;;;;;;17.57;9.33;;;;;;;;;;2100647;28;20033;-77
2023/09/24 06:49:37;;;;;;;15.30;9.80;;;;;;;;;;2097136;28;20708;-78
2023/09/24 06:51:07;;;;;;;15.25;9.65;;;;;;;;;;2089861;28;20415;-76
2023/09/24 06:52:32;;;;;;;12.93;9.60;;;;;;;;;;2091660;28;20029;-77
2023/09/24 06:53:54;;;;;;;17.42;9.75;;;;;;;;;;2096373;28;20035;-77
2023/09/24 06:55:15;;;;;;;19.77;10.95;;;;;;;;;;2096647;28;20029;-76
2023/09/24 06:56:35;;;;;;;14.95;9.80;;;;;;;;;;2098033;28;20040;-77
2023/09/24 06:57:56;;;;;;;17.67;10.70;;;;;;;;;;2097679;28;20037;-77
2023/09/24 06:59:17;;;;;;;17.92;10.90;;;;;;;;;;2094913;28;20020;-77
2023/09/24 07:00:38;;;;;;;14.50;9.27;;;;;;;;;;2097132;28;20021;-77
2023/09/24 07:01:59;;;;;;;18.30;10.63;;;;;;;;;;2097953;28;20459;-77
2023/09/24 07:03:20;;;;;;;14.25;10.50;;;;;;;;;;2104596;28;20040;-77
2023/09/24 07:04:42;;;;;;;16.30;10.18;;;;;;;;;;2103863;28;20020;-77
2023/09/24 07:06:03;;;;;;;14.95;10.27;;;;;;;;;;2092801;28;20048;-77
2023/09/24 07:07:25;;;;;;;16.67;10.32;;;;;;;;;;2092611;28;20021;-77
2023/09/24 07:08:46;;;;;;;18.88;9.93;;;;;;;;;;2096444;28;20055;-78
2023/09/24 07:10:07;;;;;;;13.23;8.60;;;;;;;;;;2094682;28;20049;-78
2023/09/24 07:11:31;;;;;;;15.90;9.35;;;;;;;;;;2095714;28;20038;-78
2023/09/24 07:12:52;;;;;;;15.90;9.45;;;;;;;;;;2095044;28;20109;-78
2023/09/24 07:14:13;;;;;;;17.48;9.73;;;;;;;;;;2094714;28;20025;-79
2023/09/24 07:15:34;;;;;;;19.08;9.95;;;;;;;;;;2093684;28;20404;-79
2023/09/24 07:16:55;;;;;;;15.88;9.00;;;;;;;;;;2095568;28;20041;-78
2023/09/24 07:18:16;;;;;;;15.88;10.32;;;;;;;;;;2093377;28;20029;-78
2023/09/24 07:19:37;;;;;;;14.63;8.75;;;;;;;;;;2094212;28;20506;-77
2023/09/24 07:20:57;;;;;;;14.40;9.23;;;;;;;;;;2092834;28;20086;-77
2023/09/24 07:22:24;;;;;;;14.52;9.60;;;;;;;;;;2088556;28;20036;-75
2023/09/24 07:23:47;;;;;;;14.88;10.02;;;;;;;;;;2098900;28;20032;-77
2023/09/24 07:25:08;;;;;;;;;;;;;;;;;;2093513;28;20314;-78
2023/09/24 07:26:28;;;;;;;14.60;9.77;;;;;;;;;;2105108;28;20274;-76
2023/09/24 07:27:49;;;;;;;12.60;9.13;;;;;;;;;;2085889;28;20033;-78
2023/09/24 07:29:10;;;;;;;17.33;9.02;;;;;;;;;;2088715;28;20058;-79
2023/09/24 07:30:33;;;;;;;11.63;8.25;;;;;;;;;;2093077;28;20028;-78
2023/09/24 07:31:54;;;;;;;;;;;;;;;;;;2094239;28;20436;-78
2023/09/24 07:33:15;;;;;;;14.15;7.15;;;;;;;;;;2094850;28;19961;-75
2023/09/24 07:34:35;;;;;;;15.70;9.10;;;;;;;;;;2100101;28;20392;-78
2023/09/24 07:35:56;;;;;;;13.75;8.27;;;;;;;;;;2096000;28;20037;-78
2023/09/24 07:37:17;;;;;;;9.68;6.22;;;;;;;;;;2093218;28;20028;-75
2023/09/24 07:38:40;;;;;;;10.93;7.40;;;;;;;;;;2093681;28;20040;-76
2023/09/24 07:40:02;;;;;;;12.77;6.45;;;;;;;;;;2101062;28;20032;-77
2023/09/24 07:41:23;;;;;;;11.98;7.63;;;;;;;;;;2092439;28;20104;-77
2023/09/24 07:42:46;;;;;;;12.10;6.22;;;;;;;;;;2092510;28;20141;-78
2023/09/24 07:44:07;;;;;;;13.20;6.68;;;;;;;;;;2092186;28;20059;-77
2023/09/24 07:45:28;;;;;;;14.07;6.32;;;;;;;;;;2106203;28;20040;-77
2023/09/24 07:46:49;;;;;;;13.93;6.50;;;;;;;;;;2097009;28;20110;-76
2023/09/24 07:48:13;;;;;;;12.52;7.20;;;;;;;;;;2094893;28;20032;-76
2023/09/24 07:49:34;;;;;;;10.13;6.55;;;;;;;;;;2092044;28;20435;-78
2023/09/24 07:50:55;;;;;;;18.65;8.27;;;;;;;;;;2097976;28;20093;-77
2023/09/24 07:52:16;;;;;;;11.88;5.78;;;;;;;;;;2094126;28;20029;-78
2023/09/24 07:53:37;;;;;;;12.45;6.68;;;;;;;;;;2091362;28;20029;-77
2023/09/24 07:54:58;;;;;;;14.65;7.00;;;;;;;;;;2100146;28;20024;-75
2023/09/24 07:56:19;;;;;;;12.18;6.68;;;;;;;;;;2099045;28;20069;-77
2023/09/24 07:57:40;;;;;;;12.75;6.13;;;;;;;;;;2096784;28;20090;-77
2023/09/24 07:59:02;;;;;;;13.45;5.75;;;;;;;;;;2094015;28;20452;-78